createdAt,value
2022-12-14T00:01:54.880Z,-7.42
2022-12-14T00:06:56.899Z,-7.45
2022-12-14T00:11:58.880Z,-7.46
2022-12-14T00:17:00.871Z,-7.50
2022-12-14T00:22:02.944Z,-7.52
2022-12-14T00:27:04.935Z,-7.54
2022-12-14T00:32:07.241Z,-7.55
2022-12-14T00:37:09.266Z,-7.61
2022-12-14T00:42:11.214Z,-7.65
2022-12-14T00:47:13.153Z,-7.68
2022-12-14T00:52:15.139Z,-7.71
2022-12-14T00:57:17.176Z,-7.76
2022-12-14T01:02:19.251Z,-7.80
2022-12-14T01:07:21.382Z,-7.85
2022-12-14T01:12:23.312Z,-7.89
2022-12-14T01:17:25.302Z,-7.94
2022-12-14T01:22:27.353Z,-8.01
2022-12-14T01:27:29.590Z,-8.05
2022-12-14T01:32:31.671Z,-8.10
2022-12-14T01:37:33.635Z,-8.11
2022-12-14T01:42:37.129Z,-8.15
2022-12-14T01:47:44.883Z,-8.18
2022-12-14T01:52:49.885Z,-8.17
2022-12-14T01:57:54.622Z,-8.15
2022-12-14T02:08:17.857Z,-8.04
2022-12-14T02:13:33.008Z,-7.97
2022-12-14T02:18:35.410Z,-7.88
2022-12-14T02:24:07.586Z,-7.76
2022-12-14T02:29:33.843Z,-7.71
2022-12-14T02:34:57.652Z,-7.65
2022-12-14T02:40:02.379Z,-7.57
2022-12-14T02:45:20.503Z,-7.49
2022-12-14T02:51:01.045Z,-7.42
2022-12-14T02:56:09.234Z,-7.36
2022-12-14T03:01:16.797Z,-7.27
2022-12-14T03:06:28.896Z,-7.25
2022-12-14T03:11:56.669Z,-7.14
2022-12-14T03:17:08.125Z,-7.11
2022-12-14T03:22:25.965Z,-7.05
2022-12-14T03:27:35.922Z,-7.03
2022-12-14T03:32:40.843Z,-7.02
2022-12-14T03:37:57.567Z,-6.97
2022-12-14T03:43:21.934Z,-6.92
2022-12-14T03:48:32.113Z,-6.88
2022-12-14T03:53:47.149Z,-6.85
2022-12-14T03:59:00.275Z,-6.79
2022-12-14T04:04:15.944Z,-6.74
2022-12-14T04:09:29.600Z,-6.67
2022-12-14T04:14:58.212Z,-6.61
2022-12-14T04:20:02.888Z,-6.56
2022-12-14T04:25:30.451Z,-6.51
2022-12-14T04:30:38.461Z,-6.46
2022-12-14T04:35:42.776Z,-6.45
2022-12-14T04:40:56.979Z,-6.42
2022-12-14T04:46:05.513Z,-6.38
2022-12-14T04:51:28.362Z,-6.35
2022-12-14T04:56:40.420Z,-6.32
2022-12-14T05:02:08.742Z,-6.34
2022-12-14T05:07:50.898Z,-6.33
2022-12-14T05:13:07.619Z,-6.33
2022-12-14T05:18:11.246Z,-6.31
2022-12-14T05:23:13.607Z,-6.28
2022-12-14T05:28:15.594Z,-6.23
2022-12-14T05:33:21.298Z,-6.23
2022-12-14T05:38:23.303Z,-6.19
2022-12-14T05:43:25.465Z,-6.19
2022-12-14T05:48:28.100Z,-6.16
2022-12-14T05:53:30.437Z,-6.16
2022-12-14T05:58:34.352Z,-6.16
2022-12-14T06:03:36.478Z,-6.17
2022-12-14T06:08:41.373Z,-6.16
2022-12-14T06:13:44.307Z,-6.21
2022-12-14T06:18:57.362Z,-6.22
2022-12-14T06:24:00.413Z,-6.18
2022-12-14T06:29:03.086Z,-6.26
2022-12-14T06:34:05.097Z,-6.28
2022-12-14T06:39:12.918Z,-6.35
2022-12-14T06:44:15.018Z,-6.36
2022-12-14T06:49:17.568Z,-6.29
2022-12-14T06:54:20.211Z,-6.39
2022-12-14T06:59:22.481Z,-6.44
2022-12-14T07:04:24.960Z,-6.43
2022-12-14T07:09:26.954Z,-6.47
2022-12-14T07:14:29.090Z,-6.46
2022-12-14T07:19:31.162Z,-6.43
2022-12-14T07:24:33.213Z,-6.46
2022-12-14T07:29:35.530Z,-6.43
2022-12-14T07:34:37.547Z,-6.40
2022-12-14T07:39:39.582Z,-6.38
2022-12-14T07:44:41.603Z,-6.33
2022-12-14T07:49:43.620Z,-6.34
2022-12-14T07:54:45.577Z,-6.30
2022-12-14T07:59:52.953Z,-6.26
2022-12-14T08:04:59.177Z,-6.24
2022-12-14T08:10:01.245Z,-6.20
2022-12-14T08:15:03.452Z,-6.19
2022-12-14T08:20:06.150Z,-6.24
2022-12-14T08:25:08.981Z,-6.18
2022-12-14T08:30:11.204Z,-6.13
2022-12-14T08:35:14.756Z,-6.11
2022-12-14T08:40:16.869Z,-6.07
2022-12-14T08:45:19.065Z,-6.05
2022-12-14T08:50:21.482Z,-5.99
2022-12-14T08:55:28.265Z,-5.96
2022-12-14T09:00:32.399Z,-5.90
2022-12-14T09:05:37.294Z,-5.86
2022-12-14T09:10:39.324Z,-5.81
2022-12-14T09:15:41.371Z,-5.69
2022-12-14T09:20:43.860Z,-5.51
2022-12-14T09:25:45.819Z,-5.34
2022-12-14T09:30:47.788Z,-5.17
2022-12-14T09:35:49.995Z,-4.98
2022-12-14T09:41:03.112Z,-4.83
2022-12-14T09:46:29.617Z,-4.67
2022-12-14T09:51:37.391Z,-4.44
2022-12-14T09:56:40.672Z,-4.22
2022-12-14T10:02:34.653Z,-3.97
2022-12-14T10:07:48.536Z,-3.71
2022-12-14T10:13:04.571Z,-3.44
2022-12-14T10:24:02.974Z,-2.91
2022-12-14T10:29:15.143Z,-2.68
2022-12-14T10:34:20.666Z,-2.47
2022-12-14T10:40:26.232Z,-2.25
2022-12-14T10:45:42.180Z,-2.06
2022-12-14T10:51:20.337Z,-1.87
2022-12-14T10:56:30.305Z,-1.74
2022-12-14T11:01:32.629Z,-1.57
2022-12-14T11:06:34.748Z,-1.46
2022-12-14T11:11:36.853Z,-1.35
2022-12-14T11:16:41.788Z,-1.28
2022-12-14T11:21:44.489Z,-1.20
2022-12-14T11:26:47.026Z,-1.12
2022-12-14T11:31:54.349Z,-1.10
2022-12-14T11:36:56.497Z,-1.11
2022-12-14T11:41:58.424Z,-1.09
2022-12-14T11:47:00.640Z,-1.07
2022-12-14T11:52:11.556Z,-1.10
2022-12-14T11:57:13.593Z,-1.09
2022-12-14T12:02:35.917Z,-1.10
2022-12-14T12:07:50.073Z,-1.12
2022-12-14T12:13:03.126Z,-1.13
2022-12-14T12:18:20.519Z,-1.13
2022-12-14T12:23:30.410Z,-1.14
2022-12-14T12:28:37.005Z,-1.16
2022-12-14T12:33:56.181Z,-1.17
2022-12-14T12:39:04.537Z,-1.22
2022-12-14T12:44:27.831Z,-1.33
2022-12-14T12:49:30.174Z,-1.39
2022-12-14T12:54:38.175Z,-1.48
2022-12-14T12:59:49.651Z,-1.56
2022-12-14T13:04:53.813Z,-1.66
2022-12-14T13:10:14.057Z,-1.77
2022-12-14T13:15:40.207Z,-1.87
2022-12-14T13:20:42.281Z,-1.95
2022-12-14T13:26:48.630Z,-2.04
2022-12-14T13:31:54.226Z,-2.14
2022-12-14T13:37:23.400Z,-2.28
2022-12-14T13:42:40.948Z,-2.41
2022-12-14T13:47:46.352Z,-2.54
2022-12-14T13:52:49.676Z,-2.68
2022-12-14T13:57:51.809Z,-2.84
2022-12-14T14:02:56.045Z,-2.97
2022-12-14T14:08:04.552Z,-3.11
2022-12-14T14:13:39.033Z,-3.28
2022-12-14T14:19:08.229Z,-3.43
2022-12-14T14:24:22.689Z,-3.54
2022-12-14T14:29:35.963Z,-3.68
2022-12-14T14:34:44.015Z,-3.81
2022-12-14T14:40:18.671Z,-3.96
2022-12-14T14:45:37.943Z,-4.08
2022-12-14T14:50:43.460Z,-4.21
2022-12-14T14:56:10.184Z,-4.31
2022-12-14T15:01:27.414Z,-4.43
2022-12-14T15:06:51.306Z,-4.55
2022-12-14T15:12:18.731Z,-4.63
2022-12-14T15:17:23.802Z,-4.73
2022-12-14T15:22:29.133Z,-4.83
2022-12-14T15:27:35.119Z,-4.92
2022-12-14T15:32:40.682Z,-5.05
2022-12-14T15:37:59.569Z,-5.11
2022-12-14T15:43:15.677Z,-5.18
2022-12-14T15:48:35.328Z,-5.27
2022-12-14T15:53:42.593Z,-5.36
2022-12-14T15:58:45.602Z,-5.42
2022-12-14T16:03:50.860Z,-5.48
2022-12-14T16:08:55.420Z,-5.55
2022-12-14T16:14:00.965Z,-5.62
2022-12-14T16:19:26.505Z,-5.65
2022-12-14T16:24:29.840Z,-5.69
2022-12-14T16:29:34.201Z,-5.74
2022-12-14T16:34:36.363Z,-5.79
2022-12-14T16:39:46.257Z,-5.82
2022-12-14T16:44:49.538Z,-5.84
2022-12-14T16:49:55.304Z,-5.89
2022-12-14T16:55:14.711Z,-5.91
2022-12-14T17:00:34.573Z,-5.94
2022-12-14T17:05:40.704Z,-5.99
2022-12-14T17:10:42.927Z,-6.03
2022-12-14T17:15:57.229Z,-6.03
2022-12-14T17:21:00.686Z,-6.05
2022-12-14T17:26:02.994Z,-6.11
2022-12-14T17:31:05.623Z,-6.11
2022-12-14T17:36:10.655Z,-6.15
2022-12-14T17:41:28.679Z,-6.14
2022-12-14T17:46:31.712Z,-6.17
2022-12-14T17:51:42.565Z,-6.20
2022-12-14T17:56:46.809Z,-6.22
2022-12-14T18:01:49.563Z,-6.22
2022-12-14T18:06:52.234Z,-6.26
2022-12-14T18:12:22.027Z,-6.28
2022-12-14T18:17:20.767Z,-6.24
2022-12-14T18:22:24.979Z,-6.29
2022-12-14T18:27:27.913Z,-6.31
2022-12-14T18:32:30.986Z,-6.31
2022-12-14T18:37:34.439Z,-6.32
2022-12-14T18:42:37.565Z,-6.34
2022-12-14T18:47:42.234Z,-6.32
2022-12-14T18:52:46.632Z,-6.31
2022-12-14T18:57:50.212Z,-6.32
2022-12-14T19:02:58.457Z,-6.32
2022-12-14T19:08:01.974Z,-6.32
2022-12-14T19:13:05.494Z,-6.31
2022-12-14T19:18:08.853Z,-6.32
2022-12-14T19:23:18.274Z,-6.30
2022-12-14T19:28:36.871Z,-6.29
2022-12-14T19:33:46.315Z,-6.30
2022-12-14T19:38:52.765Z,-6.28
2022-12-14T19:43:57.570Z,-6.30
2022-12-14T19:49:01.504Z,-6.26
2022-12-14T19:54:07.088Z,-6.29
2022-12-14T19:59:10.449Z,-6.25
2022-12-14T20:04:13.794Z,-6.27
2022-12-14T20:09:18.779Z,-6.25
2022-12-14T20:14:22.269Z,-6.24
2022-12-14T20:19:25.814Z,-6.24
2022-12-14T20:24:29.279Z,-6.24
2022-12-14T20:29:32.856Z,-6.21
2022-12-14T20:34:39.825Z,-6.21
2022-12-14T20:39:43.279Z,-6.19
2022-12-14T20:44:46.371Z,-6.21
2022-12-14T20:49:55.810Z,-6.19
2022-12-14T20:54:59.932Z,-6.19
2022-12-14T21:00:03.401Z,-6.19
2022-12-14T21:05:07.038Z,-6.18
2022-12-14T21:10:10.706Z,-6.18
2022-12-14T21:15:12.962Z,-6.16
2022-12-14T21:20:16.191Z,-6.15
2022-12-14T21:25:18.981Z,-6.13
2022-12-14T21:30:21.832Z,-6.12
2022-12-14T21:35:24.042Z,-6.12
2022-12-14T21:40:44.414Z,-6.10
2022-12-14T21:45:46.516Z,-6.09
2022-12-14T21:50:48.982Z,-6.09
2022-12-14T21:55:52.092Z,-6.08
2022-12-14T22:00:54.092Z,-6.07
2022-12-14T22:05:56.119Z,-6.06
2022-12-14T22:11:02.856Z,-6.05
2022-12-14T22:16:06.771Z,-6.04
2022-12-14T22:21:10.349Z,-6.04
2022-12-14T22:26:12.364Z,-6.02
2022-12-14T22:31:14.388Z,-6.02
2022-12-14T22:36:17.103Z,-5.99
2022-12-14T22:41:20.783Z,-6.00
2022-12-14T22:46:24.223Z,-5.99
2022-12-14T22:51:26.384Z,-5.97
2022-12-14T22:56:42.917Z,-5.96
2022-12-14T23:01:50.144Z,-5.94
2022-12-14T23:06:53.146Z,-5.93
2022-12-14T23:12:14.213Z,-5.92
2022-12-14T23:17:35.597Z,-5.90
2022-12-14T23:22:56.650Z,-5.89
2022-12-14T23:28:17.176Z,-5.86
2022-12-14T23:33:37.846Z,-5.86
2022-12-14T23:38:58.323Z,-5.85
2022-12-14T23:44:18.931Z,-5.84
2022-12-14T23:49:39.587Z,-5.84
2022-12-14T23:55:00.327Z,-5.83
